sensor_id;sensor_type;location;lat;lon;timestamp;temperature;humidity
5924;DHT22;2987;50.884;14.818;2022-11-27T00:01:26;5.10;99.90
5924;DHT22;2987;50.884;14.818;2022-11-27T00:03:53;4.90;99.90
5924;DHT22;2987;50.884;14.818;2022-11-27T00:06:22;5.20;99.90
5924;DHT22;2987;50.884;14.818;2022-11-27T00:08:50;5.00;99.90
5924;DHT22;2987;50.884;14.818;2022-11-27T00:11:23;5.20;99.90
5924;DHT22;2987;50.884;14.818;2022-11-27T00:13:50;5.10;99.90
5924;DHT22;2987;50.884;14.818;2022-11-27T00:16:17;5.10;99.90
5924;DHT22;2987;50.884;14.818;2022-11-27T00:18:43;4.70;99.90
5924;DHT22;2987;50.884;14.818;2022-11-27T00:21:12;4.70;99.90
5924;DHT22;2987;50.884;14.818;2022-11-27T00:23:39;5.00;99.90
5924;DHT22;2987;50.884;14.818;2022-11-27T00:26:06;5.20;99.90
5924;DHT22;2987;50.884;14.818;2022-11-27T00:28:34;4.70;99.90
5924;DHT22;2987;50.884;14.818;2022-11-27T00:31:04;5.00;99.90
5924;DHT22;2987;50.884;14.818;2022-11-27T00:33:30;5.10;99.90
5924;DHT22;2987;50.884;14.818;2022-11-27T00:36:03;5.30;99.90
5924;DHT22;2987;50.884;14.818;2022-11-27T00:38:33;4.90;99.90
5924;DHT22;2987;50.884;14.818;2022-11-27T00:41:10;5.10;99.90
5924;DHT22;2987;50.884;14.818;2022-11-27T00:43:37;5.20;99.90
5924;DHT22;2987;50.884;14.818;2022-11-27T00:46:04;4.90;99.90
5924;DHT22;2987;50.884;14.818;2022-11-27T00:48:30;5.20;99.90
5924;DHT22;2987;50.884;14.818;2022-11-27T00:51:00;5.10;99.90
5924;DHT22;2987;50.884;14.818;2022-11-27T00:53:27;5.00;99.90
5924;DHT22;2987;50.884;14.818;2022-11-27T00:56:27;5.10;99.90
5924;DHT22;2987;50.884;14.818;2022-11-27T00:58:54;5.00;99.90
5924;DHT22;2987;50.884;14.818;2022-11-27T01:01:23;5.20;99.90
5924;DHT22;2987;50.884;14.818;2022-11-27T01:03:50;5.10;99.90
5924;DHT22;2987;50.884;14.818;2022-11-27T01:06:18;5.20;99.90
5924;DHT22;2987;50.884;14.818;2022-11-27T01:08:46;5.40;99.90
5924;DHT22;2987;50.884;14.818;2022-11-27T01:11:18;5.00;99.90
5924;DHT22;2987;50.884;14.818;2022-11-27T01:13:45;5.40;99.90
5924;DHT22;2987;50.884;14.818;2022-11-27T01:16:14;5.30;99.90
5924;DHT22;2987;50.884;14.818;2022-11-27T01:18:42;5.30;99.90
5924;DHT22;2987;50.884;14.818;2022-11-27T01:21:10;5.50;99.90
5924;DHT22;2987;50.884;14.818;2022-11-27T01:23:36;5.50;99.90
5924;DHT22;2987;50.884;14.818;2022-11-27T01:26:05;5.40;99.90
5924;DHT22;2987;50.884;14.818;2022-11-27T01:28:33;5.20;99.90
5924;DHT22;2987;50.884;14.818;2022-11-27T01:31:13;5.10;99.90
5924;DHT22;2987;50.884;14.818;2022-11-27T01:33:39;5.00;99.90
5924;DHT22;2987;50.884;14.818;2022-11-27T01:36:06;5.30;99.90
5924;DHT22;2987;50.884;14.818;2022-11-27T01:38:33;4.90;99.90
5924;DHT22;2987;50.884;14.818;2022-11-27T01:41:02;5.10;99.90
5924;DHT22;2987;50.884;14.818;2022-11-27T01:43:41;5.20;99.90
5924;DHT22;2987;50.884;14.818;2022-11-27T01:46:22;5.10;99.90
5924;DHT22;2987;50.884;14.818;2022-11-27T01:48:53;4.90;99.90
5924;DHT22;2987;50.884;14.818;2022-11-27T01:51:22;5.10;99.90
5924;DHT22;2987;50.884;14.818;2022-11-27T01:53:51;5.00;99.90
5924;DHT22;2987;50.884;14.818;2022-11-27T01:56:18;5.10;99.90
5924;DHT22;2987;50.884;14.818;2022-11-27T01:58:45;5.00;99.90
5924;DHT22;2987;50.884;14.818;2022-11-27T02:01:12;5.00;99.90
5924;DHT22;2987;50.884;14.818;2022-11-27T02:03:38;5.20;99.90
5924;DHT22;2987;50.884;14.818;2022-11-27T02:06:05;5.10;99.90
5924;DHT22;2987;50.884;14.818;2022-11-27T02:08:31;5.00;99.90
5924;DHT22;2987;50.884;14.818;2022-11-27T02:11:19;5.20;99.90
5924;DHT22;2987;50.884;14.818;2022-11-27T02:14:02;5.00;99.90
5924;DHT22;2987;50.884;14.818;2022-11-27T02:16:39;5.20;99.90
5924;DHT22;2987;50.884;14.818;2022-11-27T02:19:31;4.80;99.90
5924;DHT22;2987;50.884;14.818;2022-11-27T02:25:12;4.70;99.90
5924;DHT22;2987;50.884;14.818;2022-11-27T02:30:11;5.10;99.90
5924;DHT22;2987;50.884;14.818;2022-11-27T02:32:44;4.70;99.90
5924;DHT22;2987;50.884;14.818;2022-11-27T02:35:18;4.70;99.90
5924;DHT22;2987;50.884;14.818;2022-11-27T02:37:55;4.70;99.90
5924;DHT22;2987;50.884;14.818;2022-11-27T02:43:34;4.70;99.90
5924;DHT22;2987;50.884;14.818;2022-11-27T02:48:29;4.60;99.90
5924;DHT22;2987;50.884;14.818;2022-11-27T02:50:56;4.70;99.90
5924;DHT22;2987;50.884;14.818;2022-11-27T02:53:30;4.70;99.90
5924;DHT22;2987;50.884;14.818;2022-11-27T02:55:57;4.90;99.90
5924;DHT22;2987;50.884;14.818;2022-11-27T02:58:26;4.80;99.90
5924;DHT22;2987;50.884;14.818;2022-11-27T03:00:54;4.90;99.90
5924;DHT22;2987;50.884;14.818;2022-11-27T03:03:24;4.40;99.90
5924;DHT22;2987;50.884;14.818;2022-11-27T03:05:54;4.40;99.90
5924;DHT22;2987;50.884;14.818;2022-11-27T03:08:32;4.60;99.90
5924;DHT22;2987;50.884;14.818;2022-11-27T03:11:03;4.10;99.90
5924;DHT22;2987;50.884;14.818;2022-11-27T03:13:33;4.10;99.90
5924;DHT22;2987;50.884;14.818;2022-11-27T03:19:01;4.10;99.90
5924;DHT22;2987;50.884;14.818;2022-11-27T03:21:37;4.00;99.90
5924;DHT22;2987;50.884;14.818;2022-11-27T03:26:33;3.80;99.90
5924;DHT22;2987;50.884;14.818;2022-11-27T03:29:02;3.80;99.90
5924;DHT22;2987;50.884;14.818;2022-11-27T03:31:30;3.80;99.90
5924;DHT22;2987;50.884;14.818;2022-11-27T03:33:56;3.80;99.90
5924;DHT22;2987;50.884;14.818;2022-11-27T03:36:24;3.70;99.90
5924;DHT22;2987;50.884;14.818;2022-11-27T03:38:51;3.50;99.90
5924;DHT22;2987;50.884;14.818;2022-11-27T03:44:31;3.70;99.90
5924;DHT22;2987;50.884;14.818;2022-11-27T03:55:27;3.00;99.90
5924;DHT22;2987;50.884;14.818;2022-11-27T03:58:02;3.00;99.90
5924;DHT22;2987;50.884;14.818;2022-11-27T04:00:33;3.00;99.90
5924;DHT22;2987;50.884;14.818;2022-11-27T04:03:02;3.00;99.90
5924;DHT22;2987;50.884;14.818;2022-11-27T04:05:29;2.70;99.90
5924;DHT22;2987;50.884;14.818;2022-11-27T04:07:55;2.80;99.90
5924;DHT22;2987;50.884;14.818;2022-11-27T04:10:21;2.80;99.90
5924;DHT22;2987;50.884;14.818;2022-11-27T04:12:47;2.80;99.90
5924;DHT22;2987;50.884;14.818;2022-11-27T04:15:13;2.80;99.90
5924;DHT22;2987;50.884;14.818;2022-11-27T04:17:40;2.70;99.90
5924;DHT22;2987;50.884;14.818;2022-11-27T04:20:07;2.70;99.90
5924;DHT22;2987;50.884;14.818;2022-11-27T04:22:37;2.70;99.90
5924;DHT22;2987;50.884;14.818;2022-11-27T04:25:03;2.60;99.90
5924;DHT22;2987;50.884;14.818;2022-11-27T04:27:29;2.70;99.90
5924;DHT22;2987;50.884;14.818;2022-11-27T04:29:56;2.70;99.90
5924;DHT22;2987;50.884;14.818;2022-11-27T04:32:22;2.70;99.90
5924;DHT22;2987;50.884;14.818;2022-11-27T04:34:48;2.70;99.90
5924;DHT22;2987;50.884;14.818;2022-11-27T04:37:14;2.70;99.90
5924;DHT22;2987;50.884;14.818;2022-11-27T04:39:40;2.70;99.90
5924;DHT22;2987;50.884;14.818;2022-11-27T04:42:06;2.50;99.90
5924;DHT22;2987;50.884;14.818;2022-11-27T04:44:32;2.40;99.90
5924;DHT22;2987;50.884;14.818;2022-11-27T04:46:58;2.40;99.90
5924;DHT22;2987;50.884;14.818;2022-11-27T04:49:24;2.80;99.90
5924;DHT22;2987;50.884;14.818;2022-11-27T04:51:51;2.70;99.90
5924;DHT22;2987;50.884;14.818;2022-11-27T04:54:16;2.70;99.90
5924;DHT22;2987;50.884;14.818;2022-11-27T04:56:43;2.70;99.90
5924;DHT22;2987;50.884;14.818;2022-11-27T04:59:09;2.80;99.90
5924;DHT22;2987;50.884;14.818;2022-11-27T05:01:35;2.80;99.90
5924;DHT22;2987;50.884;14.818;2022-11-27T05:04:03;2.80;99.90
5924;DHT22;2987;50.884;14.818;2022-11-27T05:06:29;2.60;99.90
5924;DHT22;2987;50.884;14.818;2022-11-27T05:09:04;2.90;99.90
5924;DHT22;2987;50.884;14.818;2022-11-27T05:11:31;2.60;99.90
5924;DHT22;2987;50.884;14.818;2022-11-27T05:13:58;2.70;99.90
5924;DHT22;2987;50.884;14.818;2022-11-27T05:16:41;2.70;99.90
5924;DHT22;2987;50.884;14.818;2022-11-27T05:19:09;2.70;99.90
5924;DHT22;2987;50.884;14.818;2022-11-27T05:21:37;2.70;99.90
5924;DHT22;2987;50.884;14.818;2022-11-27T05:24:04;2.50;99.90
5924;DHT22;2987;50.884;14.818;2022-11-27T05:26:30;2.30;99.90
5924;DHT22;2987;50.884;14.818;2022-11-27T05:28:56;2.40;99.90
5924;DHT22;2987;50.884;14.818;2022-11-27T05:31:22;2.50;99.90
5924;DHT22;2987;50.884;14.818;2022-11-27T05:33:49;2.20;99.90
5924;DHT22;2987;50.884;14.818;2022-11-27T05:36:14;2.30;99.90
5924;DHT22;2987;50.884;14.818;2022-11-27T05:38:41;2.20;99.90
5924;DHT22;2987;50.884;14.818;2022-11-27T05:41:07;2.10;99.90
5924;DHT22;2987;50.884;14.818;2022-11-27T05:43:33;2.20;99.90
5924;DHT22;2987;50.884;14.818;2022-11-27T05:46:04;2.30;99.90
5924;DHT22;2987;50.884;14.818;2022-11-27T05:48:32;2.30;99.90
5924;DHT22;2987;50.884;14.818;2022-11-27T05:50:59;2.10;99.90
5924;DHT22;2987;50.884;14.818;2022-11-27T05:53:25;2.20;99.90
5924;DHT22;2987;50.884;14.818;2022-11-27T05:55:51;2.20;99.90
5924;DHT22;2987;50.884;14.818;2022-11-27T05:58:17;2.30;99.90
5924;DHT22;2987;50.884;14.818;2022-11-27T06:00:44;1.90;99.90
5924;DHT22;2987;50.884;14.818;2022-11-27T06:03:10;2.10;99.90
5924;DHT22;2987;50.884;14.818;2022-11-27T06:05:39;2.10;99.90
5924;DHT22;2987;50.884;14.818;2022-11-27T06:08:05;2.30;99.90
5924;DHT22;2987;50.884;14.818;2022-11-27T06:10:32;2.20;99.90
5924;DHT22;2987;50.884;14.818;2022-11-27T06:12:58;2.20;99.90
5924;DHT22;2987;50.884;14.818;2022-11-27T06:15:25;2.30;99.90
5924;DHT22;2987;50.884;14.818;2022-11-27T06:17:51;2.20;99.90
5924;DHT22;2987;50.884;14.818;2022-11-27T06:20:17;2.20;99.90
5924;DHT22;2987;50.884;14.818;2022-11-27T06:22:45;2.30;99.90
5924;DHT22;2987;50.884;14.818;2022-11-27T06:25:11;2.20;99.90
5924;DHT22;2987;50.884;14.818;2022-11-27T06:27:37;2.30;99.90
5924;DHT22;2987;50.884;14.818;2022-11-27T06:30:04;2.10;99.90
5924;DHT22;2987;50.884;14.818;2022-11-27T06:32:31;2.50;99.90
5924;DHT22;2987;50.884;14.818;2022-11-27T06:34:57;2.60;99.90
5924;DHT22;2987;50.884;14.818;2022-11-27T06:37:23;2.40;99.90
5924;DHT22;2987;50.884;14.818;2022-11-27T06:39:49;2.50;99.90
5924;DHT22;2987;50.884;14.818;2022-11-27T06:42:16;2.50;99.90
5924;DHT22;2987;50.884;14.818;2022-11-27T06:44:42;2.30;99.90
5924;DHT22;2987;50.884;14.818;2022-11-27T06:47:08;2.50;99.90
5924;DHT22;2987;50.884;14.818;2022-11-27T06:49:34;2.30;99.90
5924;DHT22;2987;50.884;14.818;2022-11-27T06:52:01;2.40;99.90
5924;DHT22;2987;50.884;14.818;2022-11-27T06:54:27;2.60;99.90
5924;DHT22;2987;50.884;14.818;2022-11-27T06:56:53;2.60;99.90
5924;DHT22;2987;50.884;14.818;2022-11-27T06:59:19;2.60;99.90
5924;DHT22;2987;50.884;14.818;2022-11-27T07:01:45;2.80;99.90
5924;DHT22;2987;50.884;14.818;2022-11-27T07:04:13;2.60;99.90
5924;DHT22;2987;50.884;14.818;2022-11-27T07:06:41;2.70;99.90
5924;DHT22;2987;50.884;14.818;2022-11-27T07:09:08;2.80;99.90
5924;DHT22;2987;50.884;14.818;2022-11-27T07:11:39;2.60;99.90
5924;DHT22;2987;50.884;14.818;2022-11-27T07:14:05;3.00;99.90
5924;DHT22;2987;50.884;14.818;2022-11-27T07:16:34;3.00;99.90
5924;DHT22;2987;50.884;14.818;2022-11-27T07:19:04;3.00;99.90
5924;DHT22;2987;50.884;14.818;2022-11-27T07:21:31;3.00;99.90
5924;DHT22;2987;50.884;14.818;2022-11-27T07:23:59;3.00;99.90
5924;DHT22;2987;50.884;14.818;2022-11-27T07:26:27;3.00;99.90
5924;DHT22;2987;50.884;14.818;2022-11-27T07:28:54;3.00;99.90
5924;DHT22;2987;50.884;14.818;2022-11-27T07:31:23;3.00;99.90
5924;DHT22;2987;50.884;14.818;2022-11-27T07:33:49;3.20;99.90
5924;DHT22;2987;50.884;14.818;2022-11-27T07:36:23;3.30;99.90
5924;DHT22;2987;50.884;14.818;2022-11-27T07:38:49;3.30;99.90
5924;DHT22;2987;50.884;14.818;2022-11-27T07:41:16;3.30;99.90
5924;DHT22;2987;50.884;14.818;2022-11-27T07:43:43;3.30;99.90
5924;DHT22;2987;50.884;14.818;2022-11-27T07:46:16;3.50;99.90
5924;DHT22;2987;50.884;14.818;2022-11-27T07:48:44;3.70;99.90
5924;DHT22;2987;50.884;14.818;2022-11-27T07:51:13;3.60;99.90
5924;DHT22;2987;50.884;14.818;2022-11-27T07:53:40;3.50;99.90
5924;DHT22;2987;50.884;14.818;2022-11-27T07:56:09;3.80;99.90
5924;DHT22;2987;50.884;14.818;2022-11-27T07:58:35;3.80;99.90
5924;DHT22;2987;50.884;14.818;2022-11-27T08:01:06;4.10;99.90
5924;DHT22;2987;50.884;14.818;2022-11-27T08:03:32;4.10;99.90
5924;DHT22;2987;50.884;14.818;2022-11-27T08:05:59;4.30;99.90
5924;DHT22;2987;50.884;14.818;2022-11-27T08:08:25;4.40;99.90
5924;DHT22;2987;50.884;14.818;2022-11-27T08:10:51;4.30;99.90
5924;DHT22;2987;50.884;14.818;2022-11-27T08:13:17;4.40;99.90
5924;DHT22;2987;50.884;14.818;2022-11-27T08:15:43;4.70;99.90
5924;DHT22;2987;50.884;14.818;2022-11-27T08:18:11;4.60;99.90
5924;DHT22;2987;50.884;14.818;2022-11-27T08:20:37;4.80;99.90
5924;DHT22;2987;50.884;14.818;2022-11-27T08:23:04;4.40;99.90
5924;DHT22;2987;50.884;14.818;2022-11-27T08:25:30;4.90;99.90
5924;DHT22;2987;50.884;14.818;2022-11-27T08:27:57;4.80;99.90
5924;DHT22;2987;50.884;14.818;2022-11-27T08:30:23;4.90;99.90
5924;DHT22;2987;50.884;14.818;2022-11-27T08:32:49;5.20;99.90
5924;DHT22;2987;50.884;14.818;2022-11-27T08:35:16;5.20;99.90
5924;DHT22;2987;50.884;14.818;2022-11-27T08:37:42;4.90;99.90
5924;DHT22;2987;50.884;14.818;2022-11-27T08:40:08;4.90;99.90
5924;DHT22;2987;50.884;14.818;2022-11-27T08:42:34;5.50;99.90
5924;DHT22;2987;50.884;14.818;2022-11-27T08:45:00;5.60;99.90
5924;DHT22;2987;50.884;14.818;2022-11-27T08:47:27;5.50;99.90
5924;DHT22;2987;50.884;14.818;2022-11-27T08:49:53;5.60;99.90
5924;DHT22;2987;50.884;14.818;2022-11-27T08:52:19;5.70;99.90
5924;DHT22;2987;50.884;14.818;2022-11-27T08:54:46;5.70;99.90
5924;DHT22;2987;50.884;14.818;2022-11-27T08:57:12;5.70;99.90
5924;DHT22;2987;50.884;14.818;2022-11-27T08:59:38;6.10;99.90
5924;DHT22;2987;50.884;14.818;2022-11-27T09:02:05;6.20;99.90
5924;DHT22;2987;50.884;14.818;2022-11-27T09:04:31;6.10;99.90
5924;DHT22;2987;50.884;14.818;2022-11-27T09:06:57;6.20;99.90
5924;DHT22;2987;50.884;14.818;2022-11-27T09:09:23;6.60;99.90
5924;DHT22;2987;50.884;14.818;2022-11-27T09:11:50;6.40;99.90
5924;DHT22;2987;50.884;14.818;2022-11-27T09:14:16;6.50;99.90
5924;DHT22;2987;50.884;14.818;2022-11-27T09:16:42;6.30;99.90
5924;DHT22;2987;50.884;14.818;2022-11-27T09:19:08;6.50;99.90
5924;DHT22;2987;50.884;14.818;2022-11-27T09:21:35;6.60;99.90
5924;DHT22;2987;50.884;14.818;2022-11-27T09:24:04;6.80;99.90
5924;DHT22;2987;50.884;14.818;2022-11-27T09:26:30;6.70;99.90
5924;DHT22;2987;50.884;14.818;2022-11-27T09:28:57;6.70;99.90
5924;DHT22;2987;50.884;14.818;2022-11-27T09:31:24;6.80;99.90
5924;DHT22;2987;50.884;14.818;2022-11-27T09:33:50;7.00;99.90
5924;DHT22;2987;50.884;14.818;2022-11-27T09:36:21;6.80;99.90
5924;DHT22;2987;50.884;14.818;2022-11-27T09:38:48;6.80;99.90
5924;DHT22;2987;50.884;14.818;2022-11-27T09:41:38;7.00;99.90
5924;DHT22;2987;50.884;14.818;2022-11-27T09:46:55;7.00;99.90
5924;DHT22;2987;50.884;14.818;2022-11-27T09:49:27;7.00;99.90
5924;DHT22;2987;50.884;14.818;2022-11-27T09:52:22;7.20;99.90
5924;DHT22;2987;50.884;14.818;2022-11-27T09:54:56;7.40;99.90
5924;DHT22;2987;50.884;14.818;2022-11-27T09:57:30;7.20;99.90
5924;DHT22;2987;50.884;14.818;2022-11-27T10:00:04;7.50;99.90
5924;DHT22;2987;50.884;14.818;2022-11-27T10:02:33;7.10;99.90
5924;DHT22;2987;50.884;14.818;2022-11-27T10:05:03;7.30;99.90
5924;DHT22;2987;50.884;14.818;2022-11-27T10:07:46;7.20;99.90
5924;DHT22;2987;50.884;14.818;2022-11-27T10:10:31;7.30;99.90
5924;DHT22;2987;50.884;14.818;2022-11-27T10:13:20;7.30;99.90
5924;DHT22;2987;50.884;14.818;2022-11-27T10:16:15;7.50;99.90
5924;DHT22;2987;50.884;14.818;2022-11-27T10:18:48;7.20;99.90
5924;DHT22;2987;50.884;14.818;2022-11-27T10:21:41;7.40;99.90
5924;DHT22;2987;50.884;14.818;2022-11-27T10:24:18;8.10;99.90
5924;DHT22;2987;50.884;14.818;2022-11-27T10:26:48;8.30;99.90
5924;DHT22;2987;50.884;14.818;2022-11-27T10:31:50;8.00;99.90
5924;DHT22;2987;50.884;14.818;2022-11-27T10:34:40;8.50;99.90
5924;DHT22;2987;50.884;14.818;2022-11-27T10:42:26;10.00;99.90
5924;DHT22;2987;50.884;14.818;2022-11-27T10:45:06;10.00;99.90
5924;DHT22;2987;50.884;14.818;2022-11-27T10:47:33;10.60;99.90
5924;DHT22;2987;50.884;14.818;2022-11-27T10:50:01;10.30;99.90
5924;DHT22;2987;50.884;14.818;2022-11-27T10:52:27;10.50;99.90
5924;DHT22;2987;50.884;14.818;2022-11-27T10:54:58;10.90;99.90
5924;DHT22;2987;50.884;14.818;2022-11-27T11:00:20;11.00;99.90
5924;DHT22;2987;50.884;14.818;2022-11-27T11:02:47;11.40;99.90
5924;DHT22;2987;50.884;14.818;2022-11-27T11:05:20;11.30;99.90
5924;DHT22;2987;50.884;14.818;2022-11-27T11:08:12;11.40;99.90
5924;DHT22;2987;50.884;14.818;2022-11-27T11:11:00;11.70;99.90
5924;DHT22;2987;50.884;14.818;2022-11-27T11:16:04;11.60;99.90
5924;DHT22;2987;50.884;14.818;2022-11-27T11:18:31;11.60;99.90
5924;DHT22;2987;50.884;14.818;2022-11-27T11:21:02;11.70;99.90
5924;DHT22;2987;50.884;14.818;2022-11-27T11:23:34;11.80;99.90
5924;DHT22;2987;50.884;14.818;2022-11-27T11:26:06;11.90;99.90
5924;DHT22;2987;50.884;14.818;2022-11-27T11:28:38;12.00;99.90
5924;DHT22;2987;50.884;14.818;2022-11-27T11:31:18;11.60;99.90
5924;DHT22;2987;50.884;14.818;2022-11-27T11:33:50;12.00;99.90
5924;DHT22;2987;50.884;14.818;2022-11-27T11:36:17;12.10;99.90
5924;DHT22;2987;50.884;14.818;2022-11-27T11:38:45;11.80;99.90
5924;DHT22;2987;50.884;14.818;2022-11-27T11:41:12;11.80;99.90
5924;DHT22;2987;50.884;14.818;2022-11-27T11:43:53;12.10;99.90
5924;DHT22;2987;50.884;14.818;2022-11-27T11:46:25;11.50;99.90
5924;DHT22;2987;50.884;14.818;2022-11-27T11:49:14;11.70;99.90
5924;DHT22;2987;50.884;14.818;2022-11-27T11:52:01;11.30;99.90
5924;DHT22;2987;50.884;14.818;2022-11-27T12:00:24;11.50;99.90
5924;DHT22;2987;50.884;14.818;2022-11-27T12:06:05;11.10;99.90
5924;DHT22;2987;50.884;14.818;2022-11-27T12:08:48;11.00;99.90
5924;DHT22;2987;50.884;14.818;2022-11-27T12:11:32;10.90;99.90
5924;DHT22;2987;50.884;14.818;2022-11-27T12:14:20;10.80;99.90
5924;DHT22;2987;50.884;14.818;2022-11-27T12:17:03;10.90;99.90
5924;DHT22;2987;50.884;14.818;2022-11-27T12:19:49;10.60;99.90
5924;DHT22;2987;50.884;14.818;2022-11-27T12:25:51;10.30;99.90
5924;DHT22;2987;50.884;14.818;2022-11-27T12:33:56;9.80;99.90
5924;DHT22;2987;50.884;14.818;2022-11-27T12:36:44;9.60;99.90
5924;DHT22;2987;50.884;14.818;2022-11-27T12:39:23;9.50;99.90
5924;DHT22;2987;50.884;14.818;2022-11-27T12:42:01;9.50;99.90
5924;DHT22;2987;50.884;14.818;2022-11-27T12:44:53;9.40;99.90
5924;DHT22;2987;50.884;14.818;2022-11-27T12:47:52;9.30;99.90
5924;DHT22;2987;50.884;14.818;2022-11-27T12:50:39;9.30;99.90
5924;DHT22;2987;50.884;14.818;2022-11-27T12:58:32;8.70;99.90
5924;DHT22;2987;50.884;14.818;2022-11-27T13:01:04;9.00;99.90
5924;DHT22;2987;50.884;14.818;2022-11-27T13:03:39;8.70;99.90
5924;DHT22;2987;50.884;14.818;2022-11-27T13:06:11;8.60;99.90
5924;DHT22;2987;50.884;14.818;2022-11-27T13:08:49;8.60;99.90
5924;DHT22;2987;50.884;14.818;2022-11-27T13:11:19;8.10;99.90
5924;DHT22;2987;50.884;14.818;2022-11-27T13:13:57;8.10;99.90
5924;DHT22;2987;50.884;14.818;2022-11-27T13:16:36;8.40;99.90
5924;DHT22;2987;50.884;14.818;2022-11-27T13:22:04;7.90;99.90
5924;DHT22;2987;50.884;14.818;2022-11-27T13:27:07;7.70;99.90
5924;DHT22;2987;50.884;14.818;2022-11-27T13:29:41;8.00;99.90
5924;DHT22;2987;50.884;14.818;2022-11-27T13:32:08;8.00;99.90
5924;DHT22;2987;50.884;14.818;2022-11-27T13:34:43;8.00;99.90
5924;DHT22;2987;50.884;14.818;2022-11-27T13:37:30;7.90;99.90
5924;DHT22;2987;50.884;14.818;2022-11-27T13:42:54;8.00;99.90
5924;DHT22;2987;50.884;14.818;2022-11-27T13:45:25;7.40;99.90
5924;DHT22;2987;50.884;14.818;2022-11-27T13:50:20;7.30;99.90
5924;DHT22;2987;50.884;14.818;2022-11-27T13:52:55;7.60;99.90
5924;DHT22;2987;50.884;14.818;2022-11-27T13:55:26;7.60;99.90
5924;DHT22;2987;50.884;14.818;2022-11-27T13:57:54;7.60;99.90
5924;DHT22;2987;50.884;14.818;2022-11-27T14:00:39;7.30;99.90
5924;DHT22;2987;50.884;14.818;2022-11-27T14:03:27;7.20;99.90
5924;DHT22;2987;50.884;14.818;2022-11-27T14:05:54;7.10;99.90
5924;DHT22;2987;50.884;14.818;2022-11-27T14:10:54;7.10;99.90
5924;DHT22;2987;50.884;14.818;2022-11-27T14:13:30;7.00;99.90
5924;DHT22;2987;50.884;14.818;2022-11-27T14:15:59;7.30;99.90
5924;DHT22;2987;50.884;14.818;2022-11-27T14:18:27;7.10;99.90
5924;DHT22;2987;50.884;14.818;2022-11-27T14:20:59;7.20;99.90
5924;DHT22;2987;50.884;14.818;2022-11-27T14:23:33;7.10;99.90
5924;DHT22;2987;50.884;14.818;2022-11-27T14:26:20;6.70;99.90
5924;DHT22;2987;50.884;14.818;2022-11-27T14:28:51;6.70;99.90
5924;DHT22;2987;50.884;14.818;2022-11-27T14:31:29;6.80;99.90
5924;DHT22;2987;50.884;14.818;2022-11-27T14:33:57;6.60;99.90
5924;DHT22;2987;50.884;14.818;2022-11-27T14:36:25;6.90;99.90
5924;DHT22;2987;50.884;14.818;2022-11-27T14:38:53;6.50;99.90
5924;DHT22;2987;50.884;14.818;2022-11-27T14:41:21;6.40;99.90
5924;DHT22;2987;50.884;14.818;2022-11-27T14:43:57;6.40;99.90
5924;DHT22;2987;50.884;14.818;2022-11-27T14:46:24;6.40;99.90
5924;DHT22;2987;50.884;14.818;2022-11-27T14:48:52;6.20;99.90
5924;DHT22;2987;50.884;14.818;2022-11-27T14:51:24;6.10;99.90
5924;DHT22;2987;50.884;14.818;2022-11-27T14:53:55;6.20;99.90
5924;DHT22;2987;50.884;14.818;2022-11-27T14:56:25;5.90;99.90
5924;DHT22;2987;50.884;14.818;2022-11-27T14:58:54;5.70;99.90
5924;DHT22;2987;50.884;14.818;2022-11-27T15:03:55;5.60;99.90
5924;DHT22;2987;50.884;14.818;2022-11-27T15:06:22;5.60;99.90
5924;DHT22;2987;50.884;14.818;2022-11-27T15:08:50;5.30;99.90
5924;DHT22;2987;50.884;14.818;2022-11-27T15:11:17;5.40;99.90
5924;DHT22;2987;50.884;14.818;2022-11-27T15:13:51;5.20;99.90
5924;DHT22;2987;50.884;14.818;2022-11-27T15:16:21;5.30;99.90
5924;DHT22;2987;50.884;14.818;2022-11-27T15:18:54;5.20;99.90
5924;DHT22;2987;50.884;14.818;2022-11-27T15:21:23;5.20;99.90
5924;DHT22;2987;50.884;14.818;2022-11-27T15:23:51;4.90;99.90
5924;DHT22;2987;50.884;14.818;2022-11-27T15:26:37;4.90;99.90
5924;DHT22;2987;50.884;14.818;2022-11-27T15:29:29;4.90;99.90
5924;DHT22;2987;50.884;14.818;2022-11-27T15:31:57;4.70;99.90
5924;DHT22;2987;50.884;14.818;2022-11-27T15:34:24;4.60;99.90
5924;DHT22;2987;50.884;14.818;2022-11-27T15:39:30;4.20;99.90
5924;DHT22;2987;50.884;14.818;2022-11-27T15:42:08;4.30;99.90
5924;DHT22;2987;50.884;14.818;2022-11-27T15:44:36;4.10;99.90
5924;DHT22;2987;50.884;14.818;2022-11-27T15:47:04;3.80;99.90
5924;DHT22;2987;50.884;14.818;2022-11-27T15:49:31;3.90;99.90
5924;DHT22;2987;50.884;14.818;2022-11-27T15:51:57;3.60;99.90
5924;DHT22;2987;50.884;14.818;2022-11-27T15:54:24;4.00;99.90
5924;DHT22;2987;50.884;14.818;2022-11-27T15:56:51;3.60;99.90
5924;DHT22;2987;50.884;14.818;2022-11-27T15:59:17;3.80;99.90
5924;DHT22;2987;50.884;14.818;2022-11-27T16:01:45;3.70;99.90
5924;DHT22;2987;50.884;14.818;2022-11-27T16:04:11;3.40;99.90
5924;DHT22;2987;50.884;14.818;2022-11-27T16:06:38;3.30;99.90
5924;DHT22;2987;50.884;14.818;2022-11-27T16:09:04;3.20;99.90
5924;DHT22;2987;50.884;14.818;2022-11-27T16:11:31;3.20;99.90
5924;DHT22;2987;50.884;14.818;2022-11-27T16:13:58;2.90;99.90
5924;DHT22;2987;50.884;14.818;2022-11-27T16:16:24;3.20;99.90
5924;DHT22;2987;50.884;14.818;2022-11-27T16:18:50;3.00;99.90
5924;DHT22;2987;50.884;14.818;2022-11-27T16:21:17;3.10;99.90
5924;DHT22;2987;50.884;14.818;2022-11-27T16:23:43;2.70;99.90
5924;DHT22;2987;50.884;14.818;2022-11-27T16:26:11;2.80;99.90
5924;DHT22;2987;50.884;14.818;2022-11-27T16:28:38;2.70;99.90
5924;DHT22;2987;50.884;14.818;2022-11-27T16:31:09;2.70;99.90
5924;DHT22;2987;50.884;14.818;2022-11-27T16:33:36;2.50;99.90
5924;DHT22;2987;50.884;14.818;2022-11-27T16:36:04;2.50;99.90
5924;DHT22;2987;50.884;14.818;2022-11-27T16:38:30;2.40;99.90
5924;DHT22;2987;50.884;14.818;2022-11-27T16:41:00;2.40;99.90
5924;DHT22;2987;50.884;14.818;2022-11-27T16:43:26;2.30;99.90
5924;DHT22;2987;50.884;14.818;2022-11-27T16:46:04;2.20;99.90
5924;DHT22;2987;50.884;14.818;2022-11-27T16:48:34;2.00;99.90
5924;DHT22;2987;50.884;14.818;2022-11-27T16:51:06;2.20;99.90
5924;DHT22;2987;50.884;14.818;2022-11-27T16:53:38;2.10;99.90
5924;DHT22;2987;50.884;14.818;2022-11-27T16:56:07;2.10;99.90
5924;DHT22;2987;50.884;14.818;2022-11-27T16:58:36;2.00;99.90
5924;DHT22;2987;50.884;14.818;2022-11-27T17:01:06;2.00;99.90
5924;DHT22;2987;50.884;14.818;2022-11-27T17:03:33;2.00;99.90
5924;DHT22;2987;50.884;14.818;2022-11-27T17:05:59;2.00;99.90
5924;DHT22;2987;50.884;14.818;2022-11-27T17:08:25;2.10;99.90
5924;DHT22;2987;50.884;14.818;2022-11-27T17:10:52;1.60;99.90
5924;DHT22;2987;50.884;14.818;2022-11-27T17:13:18;1.70;99.90
5924;DHT22;2987;50.884;14.818;2022-11-27T17:15:44;2.00;99.90
5924;DHT22;2987;50.884;14.818;2022-11-27T17:18:11;1.80;99.90
5924;DHT22;2987;50.884;14.818;2022-11-27T17:20:37;1.80;99.90
5924;DHT22;2987;50.884;14.818;2022-11-27T17:23:04;1.50;99.90
5924;DHT22;2987;50.884;14.818;2022-11-27T17:25:31;1.80;99.90
5924;DHT22;2987;50.884;14.818;2022-11-27T17:27:57;1.60;99.90
5924;DHT22;2987;50.884;14.818;2022-11-27T17:30:24;1.50;99.90
5924;DHT22;2987;50.884;14.818;2022-11-27T17:32:50;1.70;99.90
5924;DHT22;2987;50.884;14.818;2022-11-27T17:35:16;1.50;99.90
5924;DHT22;2987;50.884;14.818;2022-11-27T17:37:42;1.50;99.90
5924;DHT22;2987;50.884;14.818;2022-11-27T17:40:10;1.50;99.90
5924;DHT22;2987;50.884;14.818;2022-11-27T17:42:36;1.60;99.90
5924;DHT22;2987;50.884;14.818;2022-11-27T17:45:04;1.50;99.90